sensor_id;sensor_type;location;lat;lon;timestamp;temperature;humidity
36424;DHT22;22458;45.328;9.514;2023-04-09T00:02:18;13.50;74.00
36424;DHT22;22458;45.328;9.514;2023-04-09T00:04:43;13.40;73.90
36424;DHT22;22458;45.328;9.514;2023-04-09T00:07:09;13.40;74.10
36424;DHT22;22458;45.328;9.514;2023-04-09T00:09:35;13.30;74.20
36424;DHT22;22458;45.328;9.514;2023-04-09T00:12:01;13.30;74.40
36424;DHT22;22458;45.328;9.514;2023-04-09T00:14:28;13.20;74.50
36424;DHT22;22458;45.328;9.514;2023-04-09T00:16:53;13.10;74.50
36424;DHT22;22458;45.328;9.514;2023-04-09T00:19:19;13.10;74.80
36424;DHT22;22458;45.328;9.514;2023-04-09T00:21:45;13.10;74.70
36424;DHT22;22458;45.328;9.514;2023-04-09T00:24:11;13.10;74.90
36424;DHT22;22458;45.328;9.514;2023-04-09T00:26:37;13.10;75.00
36424;DHT22;22458;45.328;9.514;2023-04-09T00:29:03;13.10;75.00
36424;DHT22;22458;45.328;9.514;2023-04-09T00:31:29;13.20;74.90
36424;DHT22;22458;45.328;9.514;2023-04-09T00:33:54;13.10;74.90
36424;DHT22;22458;45.328;9.514;2023-04-09T00:36:20;13.20;74.90
36424;DHT22;22458;45.328;9.514;2023-04-09T00:38:46;13.20;74.80
36424;DHT22;22458;45.328;9.514;2023-04-09T00:41:13;13.20;74.70
36424;DHT22;22458;45.328;9.514;2023-04-09T00:43:39;13.10;74.60
36424;DHT22;22458;45.328;9.514;2023-04-09T00:46:04;13.10;74.70
36424;DHT22;22458;45.328;9.514;2023-04-09T00:48:30;13.10;74.70
36424;DHT22;22458;45.328;9.514;2023-04-09T00:50:56;13.10;74.70
36424;DHT22;22458;45.328;9.514;2023-04-09T00:53:22;13.10;74.60
36424;DHT22;22458;45.328;9.514;2023-04-09T00:55:48;13.00;74.70
36424;DHT22;22458;45.328;9.514;2023-04-09T00:58:14;13.00;74.90
36424;DHT22;22458;45.328;9.514;2023-04-09T01:00:40;13.00;74.80
36424;DHT22;22458;45.328;9.514;2023-04-09T01:03:06;12.90;74.80
36424;DHT22;22458;45.328;9.514;2023-04-09T01:05:43;12.90;74.90
36424;DHT22;22458;45.328;9.514;2023-04-09T01:08:32;13.00;74.90
36424;DHT22;22458;45.328;9.514;2023-04-09T01:14:11;13.00;74.70
36424;DHT22;22458;45.328;9.514;2023-04-09T01:16:43;13.00;74.80
36424;DHT22;22458;45.328;9.514;2023-04-09T01:22:13;12.90;74.80
36424;DHT22;22458;45.328;9.514;2023-04-09T01:31:07;12.80;74.70
36424;DHT22;22458;45.328;9.514;2023-04-09T01:33:36;12.80;74.60
36424;DHT22;22458;45.328;9.514;2023-04-09T01:36:03;12.70;74.60
36424;DHT22;22458;45.328;9.514;2023-04-09T01:38:30;12.70;74.80
36424;DHT22;22458;45.328;9.514;2023-04-09T01:40:59;12.60;74.80
36424;DHT22;22458;45.328;9.514;2023-04-09T01:43:26;12.60;75.00
36424;DHT22;22458;45.328;9.514;2023-04-09T01:45:53;12.50;75.00
36424;DHT22;22458;45.328;9.514;2023-04-09T01:48:20;12.40;75.00
36424;DHT22;22458;45.328;9.514;2023-04-09T01:50:47;12.40;75.10
36424;DHT22;22458;45.328;9.514;2023-04-09T01:53:14;12.30;75.10
36424;DHT22;22458;45.328;9.514;2023-04-09T01:55:40;12.30;75.10
36424;DHT22;22458;45.328;9.514;2023-04-09T01:58:05;12.20;75.20
36424;DHT22;22458;45.328;9.514;2023-04-09T02:00:38;12.20;75.10
36424;DHT22;22458;45.328;9.514;2023-04-09T02:03:09;12.20;75.20
36424;DHT22;22458;45.328;9.514;2023-04-09T02:05:39;12.20;75.20
36424;DHT22;22458;45.328;9.514;2023-04-09T02:08:06;12.10;75.00
36424;DHT22;22458;45.328;9.514;2023-04-09T02:10:37;12.10;75.00
36424;DHT22;22458;45.328;9.514;2023-04-09T02:13:04;12.20;75.00
36424;DHT22;22458;45.328;9.514;2023-04-09T02:15:34;12.10;75.00
36424;DHT22;22458;45.328;9.514;2023-04-09T02:18:01;12.10;75.10
36424;DHT22;22458;45.328;9.514;2023-04-09T02:20:28;12.00;75.20
36424;DHT22;22458;45.328;9.514;2023-04-09T02:22:53;12.00;75.20
36424;DHT22;22458;45.328;9.514;2023-04-09T02:25:21;12.00;75.20
36424;DHT22;22458;45.328;9.514;2023-04-09T02:27:47;11.90;75.30
36424;DHT22;22458;45.328;9.514;2023-04-09T02:30:12;11.90;75.30
36424;DHT22;22458;45.328;9.514;2023-04-09T02:32:38;11.80;75.30
36424;DHT22;22458;45.328;9.514;2023-04-09T02:35:04;11.80;75.30
36424;DHT22;22458;45.328;9.514;2023-04-09T02:37:30;11.80;75.30
36424;DHT22;22458;45.328;9.514;2023-04-09T02:39:56;11.70;75.30
36424;DHT22;22458;45.328;9.514;2023-04-09T02:42:21;11.70;75.30
36424;DHT22;22458;45.328;9.514;2023-04-09T02:44:47;11.60;75.30
36424;DHT22;22458;45.328;9.514;2023-04-09T02:47:14;11.60;75.40
36424;DHT22;22458;45.328;9.514;2023-04-09T02:49:39;11.50;75.50
36424;DHT22;22458;45.328;9.514;2023-04-09T02:52:05;11.40;75.70
36424;DHT22;22458;45.328;9.514;2023-04-09T02:54:31;11.40;75.90
36424;DHT22;22458;45.328;9.514;2023-04-09T02:56:56;11.30;76.00
36424;DHT22;22458;45.328;9.514;2023-04-09T02:59:22;11.20;76.10
36424;DHT22;22458;45.328;9.514;2023-04-09T03:01:48;11.20;76.20
36424;DHT22;22458;45.328;9.514;2023-04-09T03:04:14;11.20;76.20
36424;DHT22;22458;45.328;9.514;2023-04-09T03:06:40;11.20;76.10
36424;DHT22;22458;45.328;9.514;2023-04-09T03:09:05;11.30;76.00
36424;DHT22;22458;45.328;9.514;2023-04-09T03:11:31;11.20;75.90
36424;DHT22;22458;45.328;9.514;2023-04-09T03:13:57;11.30;75.90
36424;DHT22;22458;45.328;9.514;2023-04-09T03:16:26;11.30;76.00
36424;DHT22;22458;45.328;9.514;2023-04-09T03:18:51;11.30;76.10
36424;DHT22;22458;45.328;9.514;2023-04-09T03:21:17;11.30;76.10
36424;DHT22;22458;45.328;9.514;2023-04-09T03:23:46;11.30;76.10
36424;DHT22;22458;45.328;9.514;2023-04-09T03:26:12;11.30;76.10
36424;DHT22;22458;45.328;9.514;2023-04-09T03:28:44;11.30;76.10
36424;DHT22;22458;45.328;9.514;2023-04-09T03:31:10;11.30;76.20
36424;DHT22;22458;45.328;9.514;2023-04-09T03:33:39;11.30;76.20
36424;DHT22;22458;45.328;9.514;2023-04-09T03:36:05;11.30;76.40
36424;DHT22;22458;45.328;9.514;2023-04-09T03:38:51;11.30;76.40
36424;DHT22;22458;45.328;9.514;2023-04-09T03:41:26;11.20;76.30
36424;DHT22;22458;45.328;9.514;2023-04-09T03:43:53;11.20;76.50
36424;DHT22;22458;45.328;9.514;2023-04-09T03:46:23;11.10;76.80
36424;DHT22;22458;45.328;9.514;2023-04-09T03:48:50;11.10;76.80
36424;DHT22;22458;45.328;9.514;2023-04-09T03:51:16;11.20;76.60
36424;DHT22;22458;45.328;9.514;2023-04-09T03:53:48;11.20;76.50
36424;DHT22;22458;45.328;9.514;2023-04-09T03:56:15;11.20;76.50
36424;DHT22;22458;45.328;9.514;2023-04-09T03:58:43;11.20;76.70
36424;DHT22;22458;45.328;9.514;2023-04-09T04:01:11;11.20;76.90
36424;DHT22;22458;45.328;9.514;2023-04-09T04:03:50;11.20;76.80
36424;DHT22;22458;45.328;9.514;2023-04-09T04:06:23;11.20;76.80
36424;DHT22;22458;45.328;9.514;2023-04-09T04:09:16;11.20;76.80
36424;DHT22;22458;45.328;9.514;2023-04-09T04:11:47;11.10;77.10
36424;DHT22;22458;45.328;9.514;2023-04-09T04:14:14;11.10;77.20
36424;DHT22;22458;45.328;9.514;2023-04-09T04:16:43;11.00;77.20
36424;DHT22;22458;45.328;9.514;2023-04-09T04:19:10;10.70;77.70
36424;DHT22;22458;45.328;9.514;2023-04-09T04:21:42;10.50;78.50
36424;DHT22;22458;45.328;9.514;2023-04-09T04:24:08;10.20;79.10
36424;DHT22;22458;45.328;9.514;2023-04-09T04:26:33;10.10;79.60
36424;DHT22;22458;45.328;9.514;2023-04-09T04:28:59;10.00;79.80
36424;DHT22;22458;45.328;9.514;2023-04-09T04:31:37;10.10;79.90
36424;DHT22;22458;45.328;9.514;2023-04-09T04:34:03;10.20;79.90
36424;DHT22;22458;45.328;9.514;2023-04-09T04:36:29;10.20;79.90
36424;DHT22;22458;45.328;9.514;2023-04-09T04:38:55;10.30;79.90
36424;DHT22;22458;45.328;9.514;2023-04-09T04:41:32;10.30;79.60
36424;DHT22;22458;45.328;9.514;2023-04-09T04:44:23;10.40;79.50
36424;DHT22;22458;45.328;9.514;2023-04-09T04:46:56;10.50;79.20
36424;DHT22;22458;45.328;9.514;2023-04-09T04:49:21;10.60;79.00
36424;DHT22;22458;45.328;9.514;2023-04-09T04:51:47;10.60;78.80
36424;DHT22;22458;45.328;9.514;2023-04-09T04:54:14;10.60;78.70
36424;DHT22;22458;45.328;9.514;2023-04-09T04:56:47;10.60;78.60
36424;DHT22;22458;45.328;9.514;2023-04-09T04:59:39;10.70;78.60
36424;DHT22;22458;45.328;9.514;2023-04-09T05:02:08;10.60;78.80
36424;DHT22;22458;45.328;9.514;2023-04-09T05:04:48;10.50;78.90
36424;DHT22;22458;45.328;9.514;2023-04-09T05:07:16;10.40;79.30
36424;DHT22;22458;45.328;9.514;2023-04-09T05:09:49;10.40;79.50
36424;DHT22;22458;45.328;9.514;2023-04-09T05:12:15;10.40;79.80
36424;DHT22;22458;45.328;9.514;2023-04-09T05:14:44;10.30;79.80
36424;DHT22;22458;45.328;9.514;2023-04-09T05:17:10;10.30;80.00
36424;DHT22;22458;45.328;9.514;2023-04-09T05:19:42;10.30;80.20
36424;DHT22;22458;45.328;9.514;2023-04-09T05:22:09;10.20;80.30
36424;DHT22;22458;45.328;9.514;2023-04-09T05:24:35;10.10;80.60
36424;DHT22;22458;45.328;9.514;2023-04-09T05:27:01;10.10;80.80
36424;DHT22;22458;45.328;9.514;2023-04-09T05:29:28;10.00;80.90
36424;DHT22;22458;45.328;9.514;2023-04-09T05:31:54;10.00;81.00
36424;DHT22;22458;45.328;9.514;2023-04-09T05:34:29;10.00;81.10
36424;DHT22;22458;45.328;9.514;2023-04-09T05:36:55;10.00;81.20
36424;DHT22;22458;45.328;9.514;2023-04-09T05:39:22;10.00;81.20
36424;DHT22;22458;45.328;9.514;2023-04-09T05:41:49;10.00;81.20
36424;DHT22;22458;45.328;9.514;2023-04-09T05:44:40;10.00;81.40
36424;DHT22;22458;45.328;9.514;2023-04-09T05:47:17;10.00;81.40
36424;DHT22;22458;45.328;9.514;2023-04-09T05:49:58;10.00;81.50
36424;DHT22;22458;45.328;9.514;2023-04-09T05:52:23;10.00;81.70
36424;DHT22;22458;45.328;9.514;2023-04-09T05:54:50;9.90;82.70
36424;DHT22;22458;45.328;9.514;2023-04-09T05:57:22;9.80;82.50
36424;DHT22;22458;45.328;9.514;2023-04-09T05:59:55;9.80;82.80
36424;DHT22;22458;45.328;9.514;2023-04-09T06:02:24;9.90;83.30
36424;DHT22;22458;45.328;9.514;2023-04-09T06:04:50;10.00;82.70
36424;DHT22;22458;45.328;9.514;2023-04-09T06:07:15;10.20;82.50
36424;DHT22;22458;45.328;9.514;2023-04-09T06:09:42;10.30;82.30
36424;DHT22;22458;45.328;9.514;2023-04-09T06:12:11;10.50;82.20
36424;DHT22;22458;45.328;9.514;2023-04-09T06:14:38;10.60;81.90
36424;DHT22;22458;45.328;9.514;2023-04-09T06:17:04;10.70;81.80
36424;DHT22;22458;45.328;9.514;2023-04-09T06:19:30;10.80;81.70
36424;DHT22;22458;45.328;9.514;2023-04-09T06:21:56;10.90;81.60
36424;DHT22;22458;45.328;9.514;2023-04-09T06:24:22;11.00;81.80
36424;DHT22;22458;45.328;9.514;2023-04-09T06:26:48;11.10;81.70
36424;DHT22;22458;45.328;9.514;2023-04-09T06:29:13;11.30;81.70
36424;DHT22;22458;45.328;9.514;2023-04-09T06:31:39;11.40;81.80
36424;DHT22;22458;45.328;9.514;2023-04-09T06:34:05;11.50;81.80
36424;DHT22;22458;45.328;9.514;2023-04-09T06:36:32;11.60;82.00
36424;DHT22;22458;45.328;9.514;2023-04-09T06:38:58;11.70;82.00
36424;DHT22;22458;45.328;9.514;2023-04-09T06:41:24;11.90;82.00
36424;DHT22;22458;45.328;9.514;2023-04-09T06:43:51;12.00;82.00
36424;DHT22;22458;45.328;9.514;2023-04-09T06:46:17;12.10;82.00
36424;DHT22;22458;45.328;9.514;2023-04-09T06:48:45;12.20;82.00
36424;DHT22;22458;45.328;9.514;2023-04-09T06:51:11;12.30;82.10
36424;DHT22;22458;45.328;9.514;2023-04-09T06:53:37;12.40;82.20
36424;DHT22;22458;45.328;9.514;2023-04-09T06:56:04;12.60;82.30
36424;DHT22;22458;45.328;9.514;2023-04-09T06:58:30;12.70;82.30
36424;DHT22;22458;45.328;9.514;2023-04-09T07:00:55;12.80;82.30
36424;DHT22;22458;45.328;9.514;2023-04-09T07:03:21;12.90;82.20
36424;DHT22;22458;45.328;9.514;2023-04-09T07:05:47;13.00;82.10
36424;DHT22;22458;45.328;9.514;2023-04-09T07:08:13;13.10;81.90
36424;DHT22;22458;45.328;9.514;2023-04-09T07:10:39;13.20;81.60
36424;DHT22;22458;45.328;9.514;2023-04-09T07:13:06;13.30;81.30
36424;DHT22;22458;45.328;9.514;2023-04-09T07:15:31;13.40;81.20
36424;DHT22;22458;45.328;9.514;2023-04-09T07:17:57;13.50;81.10
36424;DHT22;22458;45.328;9.514;2023-04-09T07:20:23;13.60;80.90
36424;DHT22;22458;45.328;9.514;2023-04-09T07:22:49;13.70;80.70
36424;DHT22;22458;45.328;9.514;2023-04-09T07:25:15;13.80;80.50
36424;DHT22;22458;45.328;9.514;2023-04-09T07:27:41;14.00;80.30
36424;DHT22;22458;45.328;9.514;2023-04-09T07:30:10;14.10;80.10
36424;DHT22;22458;45.328;9.514;2023-04-09T07:32:36;14.10;80.10
36424;DHT22;22458;45.328;9.514;2023-04-09T07:35:06;14.20;80.00
36424;DHT22;22458;45.328;9.514;2023-04-09T07:37:32;14.30;79.90
36424;DHT22;22458;45.328;9.514;2023-04-09T07:39:58;14.30;79.90
36424;DHT22;22458;45.328;9.514;2023-04-09T07:42:23;14.40;79.70
36424;DHT22;22458;45.328;9.514;2023-04-09T07:44:52;14.50;79.60
36424;DHT22;22458;45.328;9.514;2023-04-09T07:47:18;14.70;79.40
36424;DHT22;22458;45.328;9.514;2023-04-09T07:49:44;14.70;79.20
36424;DHT22;22458;45.328;9.514;2023-04-09T07:52:09;14.90;79.20
36424;DHT22;22458;45.328;9.514;2023-04-09T07:54:35;15.00;79.20
36424;DHT22;22458;45.328;9.514;2023-04-09T07:57:02;15.10;79.10
36424;DHT22;22458;45.328;9.514;2023-04-09T07:59:28;15.20;79.00
36424;DHT22;22458;45.328;9.514;2023-04-09T08:01:54;15.30;79.00
36424;DHT22;22458;45.328;9.514;2023-04-09T08:04:20;15.40;79.00
36424;DHT22;22458;45.328;9.514;2023-04-09T08:06:45;15.40;78.90
36424;DHT22;22458;45.328;9.514;2023-04-09T08:09:18;15.60;78.80
36424;DHT22;22458;45.328;9.514;2023-04-09T08:11:44;15.60;78.50
36424;DHT22;22458;45.328;9.514;2023-04-09T08:14:14;15.70;78.30
36424;DHT22;22458;45.328;9.514;2023-04-09T08:16:41;15.80;78.10
36424;DHT22;22458;45.328;9.514;2023-04-09T08:19:08;15.90;77.80
36424;DHT22;22458;45.328;9.514;2023-04-09T08:21:38;15.90;77.60
36424;DHT22;22458;45.328;9.514;2023-04-09T08:24:08;16.10;77.30
36424;DHT22;22458;45.328;9.514;2023-04-09T08:26:36;16.20;77.70
36424;DHT22;22458;45.328;9.514;2023-04-09T08:29:02;16.30;76.90
36424;DHT22;22458;45.328;9.514;2023-04-09T08:31:28;16.40;76.60
36424;DHT22;22458;45.328;9.514;2023-04-09T08:33:54;16.60;76.50
36424;DHT22;22458;45.328;9.514;2023-04-09T08:36:20;16.70;75.80
36424;DHT22;22458;45.328;9.514;2023-04-09T08:38:47;16.80;75.40
36424;DHT22;22458;45.328;9.514;2023-04-09T08:41:21;16.90;75.00
36424;DHT22;22458;45.328;9.514;2023-04-09T08:43:47;17.00;74.10
36424;DHT22;22458;45.328;9.514;2023-04-09T08:46:14;17.10;74.00
36424;DHT22;22458;45.328;9.514;2023-04-09T08:48:44;17.20;72.90
36424;DHT22;22458;45.328;9.514;2023-04-09T08:51:15;17.30;71.80
36424;DHT22;22458;45.328;9.514;2023-04-09T08:53:48;17.40;71.40
36424;DHT22;22458;45.328;9.514;2023-04-09T08:56:18;17.50;70.90
36424;DHT22;22458;45.328;9.514;2023-04-09T08:58:45;17.60;70.60
36424;DHT22;22458;45.328;9.514;2023-04-09T09:01:37;17.70;70.20
36424;DHT22;22458;45.328;9.514;2023-04-09T09:04:05;17.80;69.40
36424;DHT22;22458;45.328;9.514;2023-04-09T09:06:38;17.80;69.30
36424;DHT22;22458;45.328;9.514;2023-04-09T09:09:12;17.90;68.70
36424;DHT22;22458;45.328;9.514;2023-04-09T09:11:40;18.00;68.60
36424;DHT22;22458;45.328;9.514;2023-04-09T09:14:11;18.00;68.20
36424;DHT22;22458;45.328;9.514;2023-04-09T09:17:05;18.00;68.00
36424;DHT22;22458;45.328;9.514;2023-04-09T09:19:32;18.00;67.70
36424;DHT22;22458;45.328;9.514;2023-04-09T09:22:03;18.00;67.60
36424;DHT22;22458;45.328;9.514;2023-04-09T09:24:30;18.10;66.90
36424;DHT22;22458;45.328;9.514;2023-04-09T09:26:57;18.20;66.10
36424;DHT22;22458;45.328;9.514;2023-04-09T09:29:24;18.30;65.60
36424;DHT22;22458;45.328;9.514;2023-04-09T09:31:54;18.30;65.30
36424;DHT22;22458;45.328;9.514;2023-04-09T09:34:23;18.30;65.00
36424;DHT22;22458;45.328;9.514;2023-04-09T09:36:49;18.30;64.80
36424;DHT22;22458;45.328;9.514;2023-04-09T09:39:16;18.30;64.50
36424;DHT22;22458;45.328;9.514;2023-04-09T09:41:45;18.50;64.20
36424;DHT22;22458;45.328;9.514;2023-04-09T09:44:12;18.70;63.90
36424;DHT22;22458;45.328;9.514;2023-04-09T09:46:54;18.80;63.80
36424;DHT22;22458;45.328;9.514;2023-04-09T09:49:20;18.90;63.80
36424;DHT22;22458;45.328;9.514;2023-04-09T09:51:46;19.00;63.30
36424;DHT22;22458;45.328;9.514;2023-04-09T09:54:13;19.10;62.80
36424;DHT22;22458;45.328;9.514;2023-04-09T09:56:42;19.20;62.40
36424;DHT22;22458;45.328;9.514;2023-04-09T09:59:15;19.30;61.80
36424;DHT22;22458;45.328;9.514;2023-04-09T10:01:43;19.50;61.10
36424;DHT22;22458;45.328;9.514;2023-04-09T10:04:13;19.60;60.50
36424;DHT22;22458;45.328;9.514;2023-04-09T10:06:42;19.80;60.00
36424;DHT22;22458;45.328;9.514;2023-04-09T10:09:08;19.90;59.60
36424;DHT22;22458;45.328;9.514;2023-04-09T10:11:35;19.80;59.70
36424;DHT22;22458;45.328;9.514;2023-04-09T10:14:02;19.80;59.80
36424;DHT22;22458;45.328;9.514;2023-04-09T10:16:28;19.70;59.70
36424;DHT22;22458;45.328;9.514;2023-04-09T10:18:55;19.80;59.50
36424;DHT22;22458;45.328;9.514;2023-04-09T10:21:37;19.90;59.20
36424;DHT22;22458;45.328;9.514;2023-04-09T10:24:04;20.30;58.50
36424;DHT22;22458;45.328;9.514;2023-04-09T10:26:39;20.30;57.70
36424;DHT22;22458;45.328;9.514;2023-04-09T10:29:10;20.30;57.40
36424;DHT22;22458;45.328;9.514;2023-04-09T10:32:04;20.20;57.40
36424;DHT22;22458;45.328;9.514;2023-04-09T10:34:37;20.30;57.20
36424;DHT22;22458;45.328;9.514;2023-04-09T10:37:24;20.30;57.30
36424;DHT22;22458;45.328;9.514;2023-04-09T10:39:51;20.20;57.10
36424;DHT22;22458;45.328;9.514;2023-04-09T10:42:28;20.10;57.10
36424;DHT22;22458;45.328;9.514;2023-04-09T10:45:13;20.20;57.10
36424;DHT22;22458;45.328;9.514;2023-04-09T10:47:41;20.40;57.10
36424;DHT22;22458;45.328;9.514;2023-04-09T10:52:41;20.90;56.30
36424;DHT22;22458;45.328;9.514;2023-04-09T10:55:09;21.00;56.10
36424;DHT22;22458;45.328;9.514;2023-04-09T10:57:54;21.10;55.80
36424;DHT22;22458;45.328;9.514;2023-04-09T11:00:19;21.20;55.20
36424;DHT22;22458;45.328;9.514;2023-04-09T11:03:20;21.30;54.80
36424;DHT22;22458;45.328;9.514;2023-04-09T11:06:02;21.40;54.20
36424;DHT22;22458;45.328;9.514;2023-04-09T11:08:31;21.50;53.90
36424;DHT22;22458;45.328;9.514;2023-04-09T11:10:58;21.50;53.80
36424;DHT22;22458;45.328;9.514;2023-04-09T11:13:26;21.60;53.20
36424;DHT22;22458;45.328;9.514;2023-04-09T11:15:54;22.00;52.50
36424;DHT22;22458;45.328;9.514;2023-04-09T11:18:21;22.60;51.60
36424;DHT22;22458;45.328;9.514;2023-04-09T11:20:47;23.40;50.60
36424;DHT22;22458;45.328;9.514;2023-04-09T11:23:14;24.10;49.90
36424;DHT22;22458;45.328;9.514;2023-04-09T11:25:40;24.80;48.60
36424;DHT22;22458;45.328;9.514;2023-04-09T11:28:06;25.40;47.30
36424;DHT22;22458;45.328;9.514;2023-04-09T11:30:33;26.00;46.10
36424;DHT22;22458;45.328;9.514;2023-04-09T11:33:00;26.20;44.70
36424;DHT22;22458;45.328;9.514;2023-04-09T11:35:26;26.00;44.30
36424;DHT22;22458;45.328;9.514;2023-04-09T11:37:52;25.90;44.40
36424;DHT22;22458;45.328;9.514;2023-04-09T11:40:20;25.90;44.20
36424;DHT22;22458;45.328;9.514;2023-04-09T11:42:52;25.50;43.50
36424;DHT22;22458;45.328;9.514;2023-04-09T11:45:22;24.90;43.70
36424;DHT22;22458;45.328;9.514;2023-04-09T11:47:48;25.10;43.90
36424;DHT22;22458;45.328;9.514;2023-04-09T11:50:15;24.90;43.80
36424;DHT22;22458;45.328;9.514;2023-04-09T11:52:41;24.70;43.90
36424;DHT22;22458;45.328;9.514;2023-04-09T11:55:08;24.30;44.30
36424;DHT22;22458;45.328;9.514;2023-04-09T11:57:43;24.20;44.30
36424;DHT22;22458;45.328;9.514;2023-04-09T12:00:13;23.90;44.30
36424;DHT22;22458;45.328;9.514;2023-04-09T12:02:47;23.80;44.50
36424;DHT22;22458;45.328;9.514;2023-04-09T12:05:25;23.70;44.80
36424;DHT22;22458;45.328;9.514;2023-04-09T12:07:56;23.50;44.90
36424;DHT22;22458;45.328;9.514;2023-04-09T12:10:26;23.40;45.20
36424;DHT22;22458;45.328;9.514;2023-04-09T12:12:52;23.20;45.20
36424;DHT22;22458;45.328;9.514;2023-04-09T12:15:22;23.10;45.30
36424;DHT22;22458;45.328;9.514;2023-04-09T12:17:53;23.00;45.20
36424;DHT22;22458;45.328;9.514;2023-04-09T12:20:30;23.00;45.20
36424;DHT22;22458;45.328;9.514;2023-04-09T12:22:57;22.90;45.30
36424;DHT22;22458;45.328;9.514;2023-04-09T12:25:25;22.90;45.00
36424;DHT22;22458;45.328;9.514;2023-04-09T12:27:51;22.80;45.00
36424;DHT22;22458;45.328;9.514;2023-04-09T12:30:16;22.90;45.00
36424;DHT22;22458;45.328;9.514;2023-04-09T12:32:42;22.90;45.00
36424;DHT22;22458;45.328;9.514;2023-04-09T12:35:10;23.10;44.60
36424;DHT22;22458;45.328;9.514;2023-04-09T12:37:36;23.20;44.20
36424;DHT22;22458;45.328;9.514;2023-04-09T12:40:02;23.30;43.90
36424;DHT22;22458;45.328;9.514;2023-04-09T12:42:28;23.10;43.60
36424;DHT22;22458;45.328;9.514;2023-04-09T12:44:54;22.90;43.90
36424;DHT22;22458;45.328;9.514;2023-04-09T12:47:19;22.90;44.00
36424;DHT22;22458;45.328;9.514;2023-04-09T12:49:45;22.90;43.90
36424;DHT22;22458;45.328;9.514;2023-04-09T12:52:15;22.90;43.90
36424;DHT22;22458;45.328;9.514;2023-04-09T12:54:43;22.80;43.90
36424;DHT22;22458;45.328;9.514;2023-04-09T12:57:09;22.80;44.20
36424;DHT22;22458;45.328;9.514;2023-04-09T12:59:35;22.80;43.90
36424;DHT22;22458;45.328;9.514;2023-04-09T13:02:02;22.90;43.70
36424;DHT22;22458;45.328;9.514;2023-04-09T13:04:28;23.00;43.40
36424;DHT22;22458;45.328;9.514;2023-04-09T13:06:53;23.00;43.90
36424;DHT22;22458;45.328;9.514;2023-04-09T13:09:19;23.10;43.60
36424;DHT22;22458;45.328;9.514;2023-04-09T13:11:45;23.20;43.70
36424;DHT22;22458;45.328;9.514;2023-04-09T13:14:11;23.20;43.40
36424;DHT22;22458;45.328;9.514;2023-04-09T13:16:41;23.20;43.30
36424;DHT22;22458;45.328;9.514;2023-04-09T13:19:08;23.30;43.80
36424;DHT22;22458;45.328;9.514;2023-04-09T13:21:34;23.40;43.20
36424;DHT22;22458;45.328;9.514;2023-04-09T13:24:02;23.60;42.80
36424;DHT22;22458;45.328;9.514;2023-04-09T13:26:28;23.70;42.30
36424;DHT22;22458;45.328;9.514;2023-04-09T13:28:54;23.80;42.20
36424;DHT22;22458;45.328;9.514;2023-04-09T13:31:20;23.90;42.30
36424;DHT22;22458;45.328;9.514;2023-04-09T13:33:46;23.90;42.20
36424;DHT22;22458;45.328;9.514;2023-04-09T13:36:11;23.90;42.20
36424;DHT22;22458;45.328;9.514;2023-04-09T13:38:37;23.90;42.20
36424;DHT22;22458;45.328;9.514;2023-04-09T13:41:04;23.90;42.20
36424;DHT22;22458;45.328;9.514;2023-04-09T13:43:30;24.00;42.10
36424;DHT22;22458;45.328;9.514;2023-04-09T13:45:56;24.10;42.00
36424;DHT22;22458;45.328;9.514;2023-04-09T13:48:23;24.20;42.00
36424;DHT22;22458;45.328;9.514;2023-04-09T13:50:49;24.20;41.60
36424;DHT22;22458;45.328;9.514;2023-04-09T13:53:15;24.20;41.20
36424;DHT22;22458;45.328;9.514;2023-04-09T13:55:42;24.10;41.20
36424;DHT22;22458;45.328;9.514;2023-04-09T13:58:08;24.10;41.20
36424;DHT22;22458;45.328;9.514;2023-04-09T14:00:34;24.20;41.00
36424;DHT22;22458;45.328;9.514;2023-04-09T14:03:01;24.20;40.80
36424;DHT22;22458;45.328;9.514;2023-04-09T14:05:29;24.20;40.40
36424;DHT22;22458;45.328;9.514;2023-04-09T14:07:57;24.90;39.60
36424;DHT22;22458;45.328;9.514;2023-04-09T14:10:23;25.90;38.60
36424;DHT22;22458;45.328;9.514;2023-04-09T14:12:49;27.20;37.60
36424;DHT22;22458;45.328;9.514;2023-04-09T14:15:15;28.60;36.50
36424;DHT22;22458;45.328;9.514;2023-04-09T14:17:42;29.70;35.40
36424;DHT22;22458;45.328;9.514;2023-04-09T14:20:08;30.50;34.80
36424;DHT22;22458;45.328;9.514;2023-04-09T14:22:34;30.40;34.20
36424;DHT22;22458;45.328;9.514;2023-04-09T14:25:00;29.90;35.20
36424;DHT22;22458;45.328;9.514;2023-04-09T14:27:25;29.50;35.10
36424;DHT22;22458;45.328;9.514;2023-04-09T14:29:51;29.20;35.60
36424;DHT22;22458;45.328;9.514;2023-04-09T14:32:18;29.50;35.90
36424;DHT22;22458;45.328;9.514;2023-04-09T14:34:43;30.20;35.50
36424;DHT22;22458;45.328;9.514;2023-04-09T14:37:09;30.50;34.80
36424;DHT22;22458;45.328;9.514;2023-04-09T14:39:35;30.60;34.70
36424;DHT22;22458;45.328;9.514;2023-04-09T14:42:00;30.90;34.50
36424;DHT22;22458;45.328;9.514;2023-04-09T14:44:26;31.10;34.00
36424;DHT22;22458;45.328;9.514;2023-04-09T14:46:52;31.10;33.50
36424;DHT22;22458;45.328;9.514;2023-04-09T14:49:22;30.90;33.40
36424;DHT22;22458;45.328;9.514;2023-04-09T14:51:48;30.40;33.00
36424;DHT22;22458;45.328;9.514;2023-04-09T14:54:14;29.90;33.10
36424;DHT22;22458;45.328;9.514;2023-04-09T14:56:40;29.70;33.50
36424;DHT22;22458;45.328;9.514;2023-04-09T14:59:06;29.90;33.20
36424;DHT22;22458;45.328;9.514;2023-04-09T15:01:31;30.40;33.10
36424;DHT22;22458;45.328;9.514;2023-04-09T15:03:57;30.90;33.00
36424;DHT22;22458;45.328;9.514;2023-04-09T15:06:23;31.50;32.80
36424;DHT22;22458;45.328;9.514;2023-04-09T15:08:49;32.00;32.50
36424;DHT22;22458;45.328;9.514;2023-04-09T15:11:16;32.30;32.40
36424;DHT22;22458;45.328;9.514;2023-04-09T15:13:42;32.70;31.80
36424;DHT22;22458;45.328;9.514;2023-04-09T15:16:07;33.40;31.10
36424;DHT22;22458;45.328;9.514;2023-04-09T15:18:33;34.20;30.40
36424;DHT22;22458;45.328;9.514;2023-04-09T15:21:00;34.80;30.00
36424;DHT22;22458;45.328;9.514;2023-04-09T15:23:26;35.00;29.70
36424;DHT22;22458;45.328;9.514;2023-04-09T15:25:52;35.00;29.40
36424;DHT22;22458;45.328;9.514;2023-04-09T15:28:17;34.90;29.10
36424;DHT22;22458;45.328;9.514;2023-04-09T15:30:43;34.60;29.10
36424;DHT22;22458;45.328;9.514;2023-04-09T15:33:09;34.00;29.10
36424;DHT22;22458;45.328;9.514;2023-04-09T15:35:35;32.70;29.30
36424;DHT22;22458;45.328;9.514;2023-04-09T15:38:00;31.40;29.80
36424;DHT22;22458;45.328;9.514;2023-04-09T15:40:26;30.30;30.30
36424;DHT22;22458;45.328;9.514;2023-04-09T15:42:55;29.80;30.90
36424;DHT22;22458;45.328;9.514;2023-04-09T15:45:20;30.00;30.90
36424;DHT22;22458;45.328;9.514;2023-04-09T15:47:46;30.70;30.70
36424;DHT22;22458;45.328;9.514;2023-04-09T15:50:12;31.60;30.30
36424;DHT22;22458;45.328;9.514;2023-04-09T15:52:38;32.30;30.10